Time;durP1;ratioP1;P1;durP2;ratioP2;P2;SDS_P1;SDS_P2;PMS_P1;PMS_P2;Temp;Humidity;BMP_temperature;BMP_pressure;BME280_temperature;BME280_humidity;BME280_pressure;Samples;Min_cycle;Max_cycle;Signal;HPM_P1;HPM_P2
2021/12/14 00:01:12;;;;;;;;;;;7.90;99.90;;;;;;5034693;28;19924;-79
2021/12/14 00:03:40;;;;;;;;;;;7.90;99.90;;;;;;5034981;28;20269;-79
2021/12/14 00:06:07;;;;;;;;;;;7.90;99.90;;;;;;5020677;28;19924;-78
2021/12/14 00:08:37;;;;;;;;;;;7.90;99.90;;;;;;5050651;28;19939;-79
2021/12/14 00:15:56;;;;;;;;;;;7.90;99.90;;;;;;5034513;28;19920;-79
2021/12/14 00:18:21;;;;;;;;;;;7.90;99.90;;;;;;5034540;28;19924;-79
2021/12/14 00:20:49;;;;;;;;;;;7.90;99.90;;;;;;5037273;28;19956;-79
2021/12/14 00:25:45;;;;;;;;;;;7.90;99.90;;;;;;5050734;28;19917;-80
2021/12/14 00:28:16;;;;;;;;;;;7.90;99.90;;;;;;5054091;28;19991;-79
2021/12/14 00:30:43;;;;;;;;;;;7.90;99.90;;;;;;5036552;28;19916;-79
2021/12/14 00:33:12;;;;;;;;;;;7.90;99.90;;;;;;5037721;28;20273;-79
2021/12/14 00:35:38;;;;;;;;;;;7.90;99.90;;;;;;5022006;28;19976;-79
2021/12/14 00:38:04;;;;;;;;;;;7.90;99.90;;;;;;5019560;28;19923;-79
2021/12/14 00:40:32;;;;;;;;;;;7.90;99.90;;;;;;5049229;28;20363;-79
2021/12/14 00:42:59;;;;;;;;;;;7.90;99.90;;;;;;5038240;28;19917;-79
2021/12/14 00:45:26;;;;;;;;;;;7.90;99.90;;;;;;5047991;28;19924;-79
2021/12/14 00:47:52;;;;;;;;;;;7.90;99.90;;;;;;5041752;28;19943;-79
2021/12/14 00:50:18;;;;;;;;;;;7.90;99.90;;;;;;5045576;28;19916;-79
2021/12/14 00:52:44;;;;;;;;;;;7.90;99.90;;;;;;5040612;28;19931;-79
2021/12/14 00:55:12;;;;;;;;;;;7.90;99.90;;;;;;5039353;28;20369;-79
2021/12/14 00:57:37;;;;;;;;;;;7.90;99.90;;;;;;5041476;28;20380;-79
2021/12/14 01:00:05;;;;;;;;;;;7.80;99.90;;;;;;5058071;28;19922;-79
2021/12/14 01:02:31;;;;;;;;;;;7.80;99.90;;;;;;5026652;28;19928;-79
2021/12/14 01:04:58;;;;;;;;;;;7.80;99.90;;;;;;5043314;28;19923;-79
2021/12/14 01:07:27;;;;;;;;;;;7.80;99.90;;;;;;5038002;28;19916;-79
2021/12/14 01:09:56;;;;;;;;;;;7.90;99.90;;;;;;5021241;28;19923;-79
2021/12/14 01:12:33;;;;;;;;;;;7.80;99.90;;;;;;5033544;28;19916;-79
2021/12/14 01:15:22;;;;;;;;;;;7.80;99.90;;;;;;5053146;28;20406;-79
2021/12/14 01:20:44;;;;;;;;;;;7.80;99.90;;;;;;5029189;28;19921;-79
2021/12/14 01:23:25;;;;;;;;;;;7.80;99.90;;;;;;5053009;28;19962;-79
2021/12/14 01:25:52;;;;;;;;;;;7.80;99.90;;;;;;5037692;28;19921;-79
2021/12/14 01:28:20;;;;;;;;;;;7.80;99.90;;;;;;5020864;28;19916;-79
2021/12/14 01:31:09;;;;;;;;;;;7.70;99.90;;;;;;5037304;28;19924;-79
2021/12/14 01:33:38;;;;;;;;;;;7.80;99.90;;;;;;5043878;28;19917;-80
2021/12/14 01:36:10;;;;;;;;;;;7.80;99.90;;;;;;5038007;28;19928;-79
2021/12/14 01:38:46;;;;;;;;;;;7.80;99.90;;;;;;5040657;28;19916;-79
2021/12/14 01:41:13;;;;;;;;;;;7.80;99.90;;;;;;5037888;28;21592;-79
2021/12/14 01:43:41;;;;;;;;;;;7.80;99.90;;;;;;5051038;28;19923;-79
2021/12/14 01:46:10;;;;;;;;;;;7.80;99.90;;;;;;5038304;28;19963;-79
2021/12/14 01:48:36;;;;;;;;;;;7.80;99.90;;;;;;5037021;28;19959;-79
2021/12/14 01:51:04;;;;;;;;;;;7.80;99.90;;;;;;5020560;28;19960;-79
2021/12/14 01:53:29;;;;;;;;;;;7.80;99.90;;;;;;5040122;28;19917;-78
2021/12/14 01:55:57;;;;;;;;;;;7.70;99.90;;;;;;5056522;28;19921;-79
2021/12/14 01:58:26;;;;;;;;;;;7.80;99.90;;;;;;5039281;28;19923;-79
2021/12/14 02:00:57;;;;;;;;;;;7.80;99.90;;;;;;5034173;28;19916;-79
2021/12/14 02:03:34;;;;;;;;;;;7.80;99.90;;;;;;5049991;28;20407;-79
2021/12/14 02:05:59;;;;;;;;;;;7.80;99.90;;;;;;5020065;28;19921;-79
2021/12/14 02:08:27;;;;;;;;;;;7.80;99.90;;;;;;5020235;28;19920;-79
2021/12/14 02:10:53;;;;;;;;;;;7.70;99.90;;;;;;5036496;28;19916;-79
2021/12/14 02:13:27;;;;;;;;;;;7.80;99.90;;;;;;5036885;28;20270;-79
2021/12/14 02:15:53;;;;;;;;;;;7.70;99.90;;;;;;5031001;28;20015;-79
2021/12/14 02:18:20;;;;;;;;;;;7.70;99.90;;;;;;5026636;28;20340;-82
2021/12/14 02:20:56;;;;;;;;;;;7.70;99.90;;;;;;5020492;28;20296;-79
2021/12/14 02:23:23;;;;;;;;;;;7.80;99.90;;;;;;5036071;28;19917;-79
2021/12/14 02:25:49;;;;;;;;;;;7.70;99.90;;;;;;5019744;28;19923;-79
2021/12/14 02:28:18;;;;;;;;;;;7.70;99.90;;;;;;5034567;28;19917;-80
2021/12/14 02:30:46;;;;;;;;;;;7.70;99.90;;;;;;5038520;28;20406;-79
2021/12/14 02:33:13;;;;;;;;;;;7.70;99.90;;;;;;5055876;28;20350;-80
2021/12/14 02:35:39;;;;;;;;;;;7.70;99.90;;;;;;5026107;28;19998;-80
2021/12/14 02:38:07;;;;;;;;;;;7.70;99.90;;;;;;5019715;28;20270;-79
2021/12/14 02:40:53;;;;;;;;;;;7.70;99.90;;;;;;5019661;28;19939;-79
2021/12/14 02:43:22;;;;;;;;;;;7.70;99.90;;;;;;5036154;28;19916;-79
2021/12/14 02:45:48;;;;;;;;;;;7.80;99.90;;;;;;5019500;28;20038;-79
2021/12/14 02:48:13;;;;;;;;;;;7.70;99.90;;;;;;5019581;28;20003;-79
2021/12/14 02:50:39;;;;;;;;;;;7.70;99.90;;;;;;5036868;28;19916;-79
2021/12/14 02:53:05;;;;;;;;;;;7.70;99.90;;;;;;5051880;28;20334;-79
2021/12/14 02:55:31;;;;;;;;;;;7.70;99.90;;;;;;5019059;28;20007;-79
2021/12/14 02:57:58;;;;;;;;;;;7.70;99.90;;;;;;5019253;28;20015;-79
2021/12/14 03:00:29;;;;;;;;;;;7.70;99.90;;;;;;5035383;28;19917;-79
2021/12/14 03:02:56;;;;;;;;;;;7.70;99.90;;;;;;5019195;28;19940;-79
2021/12/14 03:05:24;;;;;;;;;;;7.70;99.90;;;;;;5035373;28;19917;-79
2021/12/14 03:07:52;;;;;;;;;;;7.80;99.90;;;;;;5019061;28;19917;-80
2021/12/14 03:10:33;;;;;;;;;;;7.70;99.90;;;;;;5034876;28;19916;-79
2021/12/14 03:13:04;;;;;;;;;;;7.70;99.90;;;;;;5051170;28;20369;-79
2021/12/14 03:15:33;;;;;;;;;;;7.70;99.90;;;;;;5018966;28;20372;-79
2021/12/14 03:18:01;;;;;;;;;;;7.70;99.90;;;;;;5019115;28;20288;-80
2021/12/14 03:20:41;;;;;;;;;;;7.70;99.90;;;;;;5035400;28;20364;-79
2021/12/14 03:23:14;;;;;;;;;;;7.70;99.90;;;;;;5032050;28;19916;-79
2021/12/14 03:25:42;;;;;;;;;;;7.70;99.90;;;;;;5023193;28;20619;-79
2021/12/14 03:28:08;;;;;;;;;;;7.80;99.90;;;;;;5018657;28;19924;-79
2021/12/14 03:30:36;;;;;;;;;;;7.80;99.90;;;;;;5019252;28;19917;-79
2021/12/14 03:33:06;;;;;;;;;;;7.80;99.90;;;;;;5035029;28;19920;-79
2021/12/14 03:35:43;;;;;;;;;;;7.70;99.90;;;;;;5034917;28;19920;-79
2021/12/14 03:38:11;;;;;;;;;;;7.80;99.90;;;;;;5018650;28;19916;-79
2021/12/14 03:40:37;;;;;;;;;;;7.80;99.90;;;;;;5035588;28;19924;-79
2021/12/14 03:43:03;;;;;;;;;;;7.80;99.90;;;;;;5050525;28;19916;-79
2021/12/14 03:45:28;;;;;;;;;;;7.80;99.90;;;;;;5034748;28;19970;-79
2021/12/14 03:47:56;;;;;;;;;;;7.80;99.90;;;;;;5018312;28;19917;-79
2021/12/14 03:50:23;;;;;;;;;;;7.80;99.90;;;;;;5050814;28;20349;-80
2021/12/14 03:52:49;;;;;;;;;;;7.80;99.90;;;;;;5030803;28;19917;-80
2021/12/14 03:55:26;;;;;;;;;;;7.80;99.90;;;;;;5018039;28;19923;-79
2021/12/14 03:57:52;;;;;;;;;;;7.80;99.90;;;;;;5034587;28;20365;-79
2021/12/14 04:00:19;;;;;;;;;;;7.80;99.90;;;;;;5018438;28;19923;-79
2021/12/14 04:02:45;;;;;;;;;;;7.80;99.90;;;;;;5024049;28;20007;-79
2021/12/14 04:05:12;;;;;;;;;;;7.80;99.90;;;;;;5037824;28;20021;-80
2021/12/14 04:07:41;;;;;;;;;;;7.80;99.90;;;;;;5037711;28;19924;-80
2021/12/14 04:10:27;;;;;;;;;;;7.80;99.90;;;;;;5050647;28;19917;-79
2021/12/14 04:12:52;;;;;;;;;;;7.70;99.90;;;;;;5028813;28;19917;-79
2021/12/14 04:15:18;;;;;;;;;;;7.70;99.90;;;;;;5034342;28;19923;-79
2021/12/14 04:17:44;;;;;;;;;;;7.70;99.90;;;;;;5017876;28;19917;-80
2021/12/14 04:20:15;;;;;;;;;;;7.70;99.90;;;;;;5028236;28;20341;-80
2021/12/14 04:22:44;;;;;;;;;;;7.70;99.90;;;;;;5039010;28;19967;-79
2021/12/14 04:25:10;;;;;;;;;;;7.70;99.90;;;;;;5054158;28;20007;-79
2021/12/14 04:27:36;;;;;;;;;;;7.60;99.90;;;;;;5020700;28;20023;-79
2021/12/14 04:30:05;;;;;;;;;;;7.60;99.90;;;;;;5035751;28;20302;-79
2021/12/14 04:32:30;;;;;;;;;;;7.50;99.90;;;;;;5006907;28;19925;-79
2021/12/14 04:34:56;;;;;;;;;;;7.50;99.90;;;;;;5014267;28;19917;-80
2021/12/14 04:37:23;;;;;;;;;;;7.40;99.90;;;;;;5016728;28;19963;-80
2021/12/14 04:39:59;;;;;;;;;;;7.40;99.90;;;;;;5034343;28;20376;-80
2021/12/14 04:53:32;;;;;;;;;;;7.40;99.90;;;;;;5042927;28;20453;-85
2021/12/14 04:55:58;;;;;;;;;;;7.40;99.90;;;;;;5035607;28;19928;-79
2021/12/14 04:58:29;;;;;;;;;;;7.40;99.90;;;;;;5027119;28;19917;-80
2021/12/14 05:00:55;;;;;;;;;;;7.50;99.90;;;;;;5017783;28;19963;-80
2021/12/14 05:03:22;;;;;;;;;;;7.50;99.90;;;;;;5024117;28;20369;-80
2021/12/14 05:05:51;;;;;;;;;;;7.50;99.90;;;;;;5017750;28;19917;-80
2021/12/14 05:10:54;;;;;;;;;;;7.50;99.90;;;;;;5033965;28;19916;-80
2021/12/14 05:13:24;;;;;;;;;;;7.60;99.90;;;;;;5017802;28;19923;-79
2021/12/14 05:15:50;;;;;;;;;;;7.60;99.90;;;;;;5017341;28;19928;-80
2021/12/14 05:18:16;;;;;;;;;;;7.60;99.90;;;;;;5022630;28;19916;-80
2021/12/14 05:20:43;;;;;;;;;;;7.60;99.90;;;;;;5037040;28;20036;-80
2021/12/14 05:23:08;;;;;;;;;;;7.60;99.90;;;;;;5049623;28;19916;-79
2021/12/14 05:25:34;;;;;;;;;;;7.60;99.90;;;;;;5021142;28;19923;-79
2021/12/14 05:28:01;;;;;;;;;;;7.60;99.90;;;;;;5039909;28;19981;-79
2021/12/14 05:30:29;;;;;;;;;;;7.70;99.90;;;;;;5053591;28;19939;-78
2021/12/14 05:32:56;;;;;;;;;;;7.70;99.90;;;;;;5049856;28;20391;-80
2021/12/14 05:35:22;;;;;;;;;;;7.70;99.90;;;;;;5020571;28;19916;-80
2021/12/14 05:37:52;;;;;;;;;;;7.70;99.90;;;;;;5021849;28;20280;-80
2021/12/14 05:40:37;;;;;;;;;;;7.70;99.90;;;;;;5036999;28;19995;-80
2021/12/14 05:43:07;;;;;;;;;;;7.60;99.90;;;;;;5036762;28;20395;-80
2021/12/14 05:45:34;;;;;;;;;;;7.60;99.90;;;;;;5020564;28;20011;-80
2021/12/14 05:47:59;;;;;;;;;;;7.60;99.90;;;;;;5020244;28;19974;-80
2021/12/14 05:50:30;;;;;;;;;;;7.60;99.90;;;;;;5020538;28;19920;-80
2021/12/14 05:52:56;;;;;;;;;;;7.60;99.90;;;;;;5036686;28;19923;-80
2021/12/14 05:55:25;;;;;;;;;;;7.60;99.90;;;;;;5020762;28;20284;-80
2021/12/14 05:57:52;;;;;;;;;;;7.60;99.90;;;;;;5020244;28;19949;-80
2021/12/14 06:00:17;;;;;;;;;;;7.60;99.90;;;;;;5036790;28;19917;-80
2021/12/14 06:02:44;;;;;;;;;;;7.60;99.90;;;;;;5053138;28;19916;-80
2021/12/14 06:05:11;;;;;;;;;;;7.60;99.90;;;;;;5020903;28;20288;-80
2021/12/14 06:07:37;;;;;;;;;;;7.60;99.90;;;;;;5036673;28;19916;-80
2021/12/14 06:10:02;;;;;;;;;;;7.60;99.90;;;;;;5034736;28;19924;-80
2021/12/14 06:12:29;;;;;;;;;;;7.60;99.90;;;;;;5036730;28;20444;-80
2021/12/14 06:14:57;;;;;;;;;;;7.60;99.90;;;;;;5036240;28;20007;-80
2021/12/14 06:17:34;;;;;;;;;;;7.60;99.90;;;;;;5032354;28;19921;-81
2021/12/14 06:20:03;;;;;;;;;;;7.60;99.90;;;;;;5024069;28;19993;-80
2021/12/14 06:22:29;;;;;;;;;;;7.60;99.90;;;;;;5048109;28;20381;-80
2021/12/14 06:24:56;;;;;;;;;;;7.70;99.90;;;;;;5019947;28;19974;-80
2021/12/14 06:27:23;;;;;;;;;;;7.60;99.90;;;;;;5019932;28;19920;-81
2021/12/14 06:29:50;;;;;;;;;;;7.60;99.90;;;;;;5026770;28;20254;-79
2021/12/14 06:32:18;;;;;;;;;;;7.60;99.90;;;;;;5039939;28;20557;-79
2021/12/14 06:34:45;;;;;;;;;;;7.60;99.90;;;;;;5055878;28;20368;-79
2021/12/14 06:40:00;;;;;;;;;;;7.70;99.90;;;;;;5037016;28;19924;-80
2021/12/14 06:42:25;;;;;;;;;;;7.70;99.90;;;;;;5019460;28;19921;-79
2021/12/14 06:45:01;;;;;;;;;;;7.70;99.90;;;;;;5052306;28;20019;-79
2021/12/14 06:47:30;;;;;;;;;;;7.60;99.90;;;;;;5037797;28;19916;-79
2021/12/14 06:49:58;;;;;;;;;;;7.70;99.90;;;;;;5038714;28;19938;-79
2021/12/14 06:52:24;;;;;;;;;;;7.60;99.90;;;;;;5039431;28;19962;-78
2021/12/14 06:54:49;;;;;;;;;;;7.60;99.90;;;;;;5055338;28;19916;-79
2021/12/14 06:57:15;;;;;;;;;;;7.60;99.90;;;;;;5055072;28;19924;-79
2021/12/14 06:59:40;;;;;;;;;;;7.70;99.90;;;;;;5032357;28;20419;-79
2021/12/14 07:02:08;;;;;;;;;;;7.60;99.90;;;;;;5036450;28;19923;-79
2021/12/14 07:04:35;;;;;;;;;;;7.60;99.90;;;;;;5035108;28;19970;-79
2021/12/14 07:07:09;;;;;;;;;;;7.60;99.90;;;;;;5035795;28;19964;-79
2021/12/14 07:09:38;;;;;;;;;;;7.60;99.90;;;;;;5033876;28;19931;-79
2021/12/14 07:12:09;;;;;;;;;;;7.60;99.90;;;;;;5050312;28;19917;-79
2021/12/14 07:14:58;;;;;;;;;;;7.60;99.90;;;;;;5034992;28;19917;-79
2021/12/14 07:17:48;;;;;;;;;;;7.60;99.90;;;;;;5018567;28;20016;-80
2021/12/14 07:20:13;;;;;;;;;;;7.70;99.90;;;;;;5033339;28;19939;-79
2021/12/14 07:22:39;;;;;;;;;;;7.70;99.90;;;;;;5019751;28;20372;-79
2021/12/14 07:25:04;;;;;;;;;;;7.70;99.90;;;;;;5051673;28;19916;-79
2021/12/14 07:27:31;;;;;;;;;;;7.70;99.90;;;;;;5053578;28;19923;-79
2021/12/14 07:30:15;;;;;;;;;;;7.70;99.90;;;;;;5040502;28;19917;-79
2021/12/14 07:32:44;;;;;;;;;;;7.70;99.90;;;;;;5034656;28;19920;-79
2021/12/14 07:35:18;;;;;;;;;;;7.70;99.90;;;;;;5051682;28;19917;-80
2021/12/14 07:37:43;;;;;;;;;;;7.60;99.90;;;;;;5035488;28;19932;-79
2021/12/14 07:40:09;;;;;;;;;;;7.70;99.90;;;;;;5019573;28;19916;-80
2021/12/14 07:42:35;;;;;;;;;;;7.60;99.90;;;;;;5037367;28;19971;-79
2021/12/14 07:45:00;;;;;;;;;;;7.60;99.90;;;;;;5018208;28;19965;-82
2021/12/14 07:47:26;;;;;;;;;;;7.60;99.90;;;;;;5050521;28;19916;-86
2021/12/14 07:49:55;;;;;;;;;;;7.60;99.90;;;;;;5038430;28;20067;-79
2021/12/14 07:52:35;;;;;;;;;;;7.70;99.90;;;;;;5034750;28;19964;-82
2021/12/14 07:55:20;;;;;;;;;;;7.60;99.90;;;;;;5022493;28;19927;-84
2021/12/14 07:57:46;;;;;;;;;;;7.60;99.90;;;;;;5057269;28;20336;-84
2021/12/14 08:00:17;;;;;;;;;;;7.70;99.90;;;;;;5045042;28;19917;-84
2021/12/14 08:03:02;;;;;;;;;;;7.60;99.90;;;;;;5031159;28;19923;-84
2021/12/14 08:05:31;;;;;;;;;;;7.70;99.90;;;;;;5037630;28;19924;-84
2021/12/14 08:08:31;;;;;;;;;;;7.70;99.90;;;;;;5037938;28;20376;-83
2021/12/14 08:11:09;;;;;;;;;;;7.70;99.90;;;;;;5025796;28;20007;-83
2021/12/14 08:13:42;;;;;;;;;;;7.70;99.90;;;;;;5043334;28;19916;-83
2021/12/14 08:16:08;;;;;;;;;;;7.70;99.90;;;;;;5030682;28;20012;-81
2021/12/14 08:18:35;;;;;;;;;;;7.70;99.90;;;;;;5048551;28;20429;-82
2021/12/14 08:21:03;;;;;;;;;;;7.70;99.90;;;;;;5032097;28;19977;-80
2021/12/14 08:23:31;;;;;;;;;;;7.80;99.90;;;;;;5021588;28;20404;-80
2021/12/14 08:26:05;;;;;;;;;;;7.70;99.90;;;;;;5029570;28;19923;-82
2021/12/14 08:28:31;;;;;;;;;;;7.80;99.90;;;;;;5068117;28;19953;-82
2021/12/14 08:30:59;;;;;;;;;;;7.80;99.90;;;;;;5024943;28;20282;-82
2021/12/14 08:33:26;;;;;;;;;;;7.90;99.90;;;;;;5056698;28;20359;-81
2021/12/14 08:35:53;;;;;;;;;;;7.90;99.90;;;;;;5041971;28;20024;-81
2021/12/14 08:38:19;;;;;;;;;;;7.90;99.90;;;;;;5059066;28;19970;-82
2021/12/14 08:40:48;;;;;;;;;;;7.90;99.90;;;;;;5039785;28;19916;-81
2021/12/14 08:43:23;;;;;;;;;;;8.00;99.90;;;;;;5038378;28;19959;-82
2021/12/14 08:45:52;;;;;;;;;;;7.90;99.90;;;;;;5057047;28;19917;-82
2021/12/14 08:48:22;;;;;;;;;;;8.00;99.90;;;;;;5052818;28;19920;-82
2021/12/14 08:50:53;;;;;;;;;;;8.10;99.90;;;;;;5060071;28;19916;-81
2021/12/14 08:53:19;;;;;;;;;;;8.10;99.90;;;;;;5043797;28;20651;-81
2021/12/14 08:55:47;;;;;;;;;;;8.10;99.90;;;;;;5042712;28;19921;-81
2021/12/14 08:58:12;;;;;;;;;;;8.10;99.90;;;;;;5022383;28;20391;-82
2021/12/14 09:00:39;;;;;;;;;;;8.10;99.90;;;;;;5024208;28;19960;-81
2021/12/14 09:03:06;;;;;;;;;;;8.10;99.90;;;;;;5038809;28;20371;-82
2021/12/14 09:05:34;;;;;;;;;;;8.10;99.90;;;;;;5050365;28;20269;-82
2021/12/14 09:08:00;;;;;;;;;;;8.20;99.90;;;;;;5042011;28;20423;-83
2021/12/14 09:10:29;;;;;;;;;;;8.20;99.90;;;;;;5040571;28;19968;-80
2021/12/14 09:12:59;;;;;;;;;;;8.20;99.90;;;;;;5039186;28;19923;-81
2021/12/14 09:15:31;;;;;;;;;;;8.20;99.90;;;;;;5039236;28;19967;-83
2021/12/14 09:17:58;;;;;;;;;;;8.30;99.90;;;;;;5021539;28;20038;-82
2021/12/14 09:20:26;;;;;;;;;;;8.30;99.90;;;;;;5044867;28;19917;-80
2021/12/14 09:22:54;;;;;;;;;;;8.30;99.90;;;;;;5051280;28;20036;-81
2021/12/14 09:25:23;;;;;;;;;;;8.30;99.90;;;;;;5041184;28;19916;-80
2021/12/14 09:27:49;;;;;;;;;;;8.30;99.90;;;;;;5040549;28;20508;-81
2021/12/14 09:30:16;;;;;;;;;;;8.30;99.90;;;;;;5063073;28;19917;-81
2021/12/14 09:32:42;;;;;;;;;;;8.30;99.90;;;;;;5069774;28;19923;-81
2021/12/14 09:35:13;;;;;;;;;;;8.30;99.90;;;;;;5052264;28;20016;-81
2021/12/14 09:37:38;;;;;;;;;;;8.30;99.90;;;;;;5071766;28;19920;-81
2021/12/14 09:40:07;;;;;;;;;;;8.30;99.90;;;;;;5041641;28;19924;-82
2021/12/14 09:42:33;;;;;;;;;;;8.30;99.90;;;;;;5045345;28;19920;-82
2021/12/14 09:45:01;;;;;;;;;;;8.30;99.90;;;;;;5043643;28;20419;-80
2021/12/14 09:47:29;;;;;;;;;;;8.40;99.90;;;;;;5062123;28;20296;-81
2021/12/14 09:49:56;;;;;;;;;;;8.40;99.90;;;;;;5042644;28;19916;-81
2021/12/14 09:52:23;;;;;;;;;;;8.50;99.90;;;;;;5048402;28;19931;-81
2021/12/14 09:54:50;;;;;;;;;;;8.50;99.90;;;;;;5039975;28;19920;-82
2021/12/14 09:57:24;;;;;;;;;;;8.50;99.90;;;;;;5051524;28;19921;-81
2021/12/14 09:59:51;;;;;;;;;;;8.60;99.90;;;;;;5045081;28;20403;-78
2021/12/14 10:02:19;;;;;;;;;;;8.60;99.90;;;;;;5037591;28;20422;-79
2021/12/14 10:04:47;;;;;;;;;;;8.60;99.90;;;;;;5043126;28;19923;-80
2021/12/14 10:07:13;;;;;;;;;;;8.60;99.90;;;;;;5031325;28;19925;-80
2021/12/14 10:09:43;;;;;;;;;;;8.60;99.90;;;;;;5046890;28;20365;-80
2021/12/14 10:12:49;;;;;;;;;;;8.60;99.90;;;;;;5056055;28;19923;-80
2021/12/14 10:15:09;;;;;;;;;;;8.60;99.90;;;;;;5050112;28;20438;-81
2021/12/14 10:17:34;;;;;;;;;;;8.60;99.90;;;;;;5056352;28;19971;-79
2021/12/14 10:20:00;;;;;;;;;;;8.60;99.90;;;;;;5035510;28;19967;-79
2021/12/14 10:22:28;;;;;;;;;;;8.60;99.90;;;;;;5048204;28;19924;-79
2021/12/14 10:24:57;;;;;;;;;;;8.60;99.90;;;;;;5031653;28;19917;-80
2021/12/14 10:27:24;;;;;;;;;;;8.60;99.90;;;;;;5043856;28;19917;-79
2021/12/14 10:29:50;;;;;;;;;;;8.60;99.90;;;;;;5041800;28;19916;-79
2021/12/14 10:32:19;;;;;;;;;;;8.60;99.90;;;;;;5049723;28;19924;-78
2021/12/14 10:34:46;;;;;;;;;;;8.50;99.90;;;;;;5053048;28;20453;-80
2021/12/14 10:37:21;;;;;;;;;;;8.50;99.90;;;;;;5049198;28;20306;-80
2021/12/14 10:45:03;;;;;;;;;;;8.50;99.90;;;;;;5067502;28;19949;-79
2021/12/14 10:47:30;;;;;;;;;;;8.50;99.90;;;;;;5043035;28;19924;-80
2021/12/14 10:49:57;;;;;;;;;;;8.50;99.90;;;;;;5042244;28;19970;-80
2021/12/14 10:52:25;;;;;;;;;;;8.50;99.90;;;;;;5063245;28;20111;-79
2021/12/14 10:54:54;;;;;;;;;;;8.50;99.90;;;;;;5063037;28;19916;-80
2021/12/14 10:57:22;;;;;;;;;;;8.50;99.90;;;;;;5062790;28;19920;-80
2021/12/14 10:59:49;;;;;;;;;;;8.40;99.90;;;;;;5060945;28;19916;-80
2021/12/14 11:02:15;;;;;;;;;;;8.40;99.90;;;;;;5056293;28;19920;-80
2021/12/14 11:04:42;;;;;;;;;;;8.40;99.90;;;;;;5051487;28;19916;-80
2021/12/14 11:07:13;;;;;;;;;;;8.40;99.90;;;;;;5058941;28;20383;-80
2021/12/14 11:09:42;;;;;;;;;;;8.40;99.90;;;;;;5018902;28;19917;-80
2021/12/14 11:12:16;;;;;;;;;;;8.40;99.90;;;;;;5050871;28;19938;-80
2021/12/14 11:14:42;;;;;;;;;;;8.40;99.90;;;;;;5030100;28;19916;-79
2021/12/14 11:19:56;;;;;;;;;;;8.50;99.90;;;;;;5056488;28;19915;-80
2021/12/14 11:22:22;;;;;;;;;;;8.50;99.90;;;;;;5038343;28;19917;-82
2021/12/14 11:24:50;;;;;;;;;;;8.50;99.90;;;;;;5047121;28;19965;-80
2021/12/14 11:27:17;;;;;;;;;;;8.60;99.90;;;;;;5034895;28;20010;-78
2021/12/14 11:29:43;;;;;;;;;;;8.60;99.90;;;;;;5068763;28;20284;-80
2021/12/14 11:32:29;;;;;;;;;;;8.60;99.90;;;;;;5053951;23;19962;-81
2021/12/14 11:35:01;;;;;;;;;;;8.60;99.90;;;;;;5033352;28;19916;-78
2021/12/14 11:37:34;;;;;;;;;;;8.60;99.90;;;;;;5032334;28;20354;-78
2021/12/14 11:40:01;;;;;;;;;;;8.70;99.90;;;;;;5051656;28;20339;-81
2021/12/14 11:42:28;;;;;;;;;;;8.60;99.90;;;;;;5055414;28;19916;-80
2021/12/14 11:45:04;;;;;;;;;;;8.70;99.90;;;;;;5046038;28;20380;-79
2021/12/14 11:50:24;;;;;;;;;;;8.60;99.90;;;;;;5065148;28;19924;-79
2021/12/14 11:52:57;;;;;;;;;;;8.60;99.90;;;;;;5046324;28;19916;-79
2021/12/14 11:55:28;;;;;;;;;;;8.60;99.90;;;;;;5040789;28;19939;-79
2021/12/14 11:58:19;;;;;;;;;;;8.60;99.90;;;;;;5039152;28;19931;-79
2021/12/14 12:00:55;;;;;;;;;;;8.70;99.90;;;;;;5025503;28;19916;-79
2021/12/14 12:03:29;;;;;;;;;;;8.60;99.90;;;;;;5039086;28;19922;-79
2021/12/14 12:06:35;;;;;;;;;;;8.60;99.90;;;;;;5072014;28;19923;-76
2021/12/14 12:12:04;;;;;;;;;;;8.70;99.90;;;;;;5039963;28;19965;-77
2021/12/14 12:14:35;;;;;;;;;;;8.70;99.90;;;;;;5040563;28;20582;-79
2021/12/14 12:17:18;;;;;;;;;;;8.80;99.90;;;;;;5016312;28;19920;-79
2021/12/14 12:20:05;;;;;;;;;;;8.70;99.90;;;;;;5047000;28;20405;-77
2021/12/14 12:22:33;;;;;;;;;;;8.80;99.90;;;;;;5073594;28;20248;-76
2021/12/14 12:25:02;;;;;;;;;;;8.80;99.90;;;;;;5046723;28;19965;-77
2021/12/14 12:28:37;;;;;;;;;;;8.80;99.90;;;;;;5009967;28;19972;-78
2021/12/14 12:31:11;;;;;;;;;;;8.80;99.90;;;;;;4961148;28;19922;-78
2021/12/14 12:33:54;;;;;;;;;;;8.80;99.90;;;;;;4982582;28;19917;-77
2021/12/14 12:40:37;;;;;;;;;;;8.70;99.90;;;;;;5014120;28;19916;-76
2021/12/14 12:43:38;;;;;;;;;;;8.80;99.90;;;;;;5002104;28;20288;-76
2021/12/14 12:46:24;;;;;;;;;;;8.80;99.90;;;;;;5021669;28;19940;-76
2021/12/14 12:48:52;;;;;;;;;;;8.80;99.90;;;;;;5018530;28;20007;-75
2021/12/14 12:51:39;;;;;;;;;;;8.70;99.90;;;;;;5043648;28;19920;-75
2021/12/14 12:54:25;;;;;;;;;;;8.70;99.90;;;;;;5020958;28;19917;-75
2021/12/14 12:57:10;;;;;;;;;;;8.70;99.90;;;;;;5045474;28;19924;-75
2021/12/14 12:59:43;;;;;;;;;;;8.70;99.90;;;;;;5042556;28;20003;-76
2021/12/14 13:02:17;;;;;;;;;;;8.70;99.90;;;;;;5035585;28;19916;-75
2021/12/14 13:04:44;;;;;;;;;;;8.80;99.90;;;;;;5026769;28;19920;-75
2021/12/14 13:07:10;;;;;;;;;;;8.80;99.90;;;;;;5036806;28;19916;-75
2021/12/14 13:09:54;;;;;;;;;;;8.80;99.90;;;;;;5052773;28;19969;-75
2021/12/14 13:12:39;;;;;;;;;;;8.80;99.90;;;;;;5024343;28;19924;-76
2021/12/14 13:15:23;;;;;;;;;;;8.80;99.90;;;;;;5017013;28;19920;-76
2021/12/14 13:18:11;;;;;;;;;;;8.80;99.90;;;;;;5018314;28;19927;-75
2021/12/14 13:20:37;;;;;;;;;;;8.80;99.90;;;;;;5025903;28;20022;-76
2021/12/14 13:23:07;;;;;;;;;;;8.80;99.90;;;;;;5016944;28;19967;-76
2021/12/14 13:25:37;;;;;;;;;;;8.80;99.90;;;;;;5017316;28;19917;-76
2021/12/14 13:28:11;;;;;;;;;;;8.90;99.90;;;;;;5024916;28;20284;-76
2021/12/14 13:30:37;;;;;;;;;;;8.90;99.90;;;;;;5036346;28;19916;-76
2021/12/14 13:33:28;;;;;;;;;;;8.90;99.90;;;;;;5019623;28;19928;-76
2021/12/14 13:36:09;;;;;;;;;;;8.90;99.90;;;;;;5038705;28;20375;-75
2021/12/14 13:38:35;;;;;;;;;;;8.90;99.90;;;;;;5036350;28;19916;-75
2021/12/14 13:41:03;;;;;;;;;;;8.90;99.90;;;;;;5034469;28;19916;-76
2021/12/14 13:43:37;;;;;;;;;;;8.90;99.90;;;;;;5017653;28;19916;-76
2021/12/14 13:46:05;;;;;;;;;;;8.90;99.90;;;;;;5030749;28;19917;-76
2021/12/14 13:48:38;;;;;;;;;;;8.90;99.90;;;;;;5020143;28;20380;-76
2021/12/14 13:51:10;;;;;;;;;;;8.90;99.90;;;;;;5054330;28;19916;-76
2021/12/14 13:53:36;;;;;;;;;;;8.90;99.90;;;;;;5031081;28;20003;-76
2021/12/14 13:56:04;;;;;;;;;;;8.90;99.90;;;;;;5021769;28;20334;-75
2021/12/14 13:58:32;;;;;;;;;;;8.90;99.90;;;;;;5027129;28;19917;-76
2021/12/14 14:01:00;;;;;;;;;;;8.80;99.90;;;;;;5040761;28;19942;-75
2021/12/14 14:03:29;;;;;;;;;;;8.90;99.90;;;;;;5023295;28;19917;-77
2021/12/14 14:06:00;;;;;;;;;;;8.90;99.90;;;;;;5036530;28;19999;-75
2021/12/14 14:08:30;;;;;;;;;;;8.90;99.90;;;;;;5028656;28;20276;-75
2021/12/14 14:11:07;;;;;;;;;;;8.90;99.90;;;;;;5036905;28;20007;-75
2021/12/14 14:13:34;;;;;;;;;;;8.90;99.90;;;;;;5020072;28;19917;-75
2021/12/14 14:16:04;;;;;;;;;;;8.90;99.90;;;;;;5020337;28;20302;-77
2021/12/14 14:18:39;;;;;;;;;;;8.90;99.90;;;;;;5032300;28;19917;-77
2021/12/14 14:21:06;;;;;;;;;;;8.90;99.90;;;;;;5019731;28;20004;-76
2021/12/14 14:23:34;;;;;;;;;;;8.90;99.90;;;;;;5033582;28;19915;-76
2021/12/14 14:26:11;;;;;;;;;;;8.80;99.90;;;;;;5066633;28;19920;-76
2021/12/14 14:28:56;;;;;;;;;;;8.80;99.90;;;;;;5058210;28;19920;-76
2021/12/14 14:31:40;;;;;;;;;;;8.90;99.90;;;;;;5024742;28;19923;-76
2021/12/14 14:34:33;;;;;;;;;;;8.90;99.90;;;;;;5019844;28;19924;-75
2021/12/14 14:37:07;;;;;;;;;;;8.90;99.90;;;;;;5011803;28;19921;-75
2021/12/14 14:39:44;;;;;;;;;;;8.90;99.90;;;;;;5016297;28;19917;-75
2021/12/14 14:42:31;;;;;;;;;;;8.90;99.90;;;;;;5020160;28;20011;-76
2021/12/14 14:45:14;;;;;;;;;;;8.90;99.90;;;;;;5036998;28;20066;-76
2021/12/14 14:47:44;;;;;;;;;;;8.90;99.90;;;;;;5034390;28;20337;-76
2021/12/14 14:50:25;;;;;;;;;;;8.90;99.90;;;;;;5019552;28;20019;-76
2021/12/14 14:53:00;;;;;;;;;;;8.90;99.90;;;;;;5038003;28;19920;-75
2021/12/14 14:55:35;;;;;;;;;;;8.90;99.90;;;;;;5037998;28;19916;-76
2021/12/14 14:58:09;;;;;;;;;;;8.90;99.90;;;;;;5038056;28;20010;-76
2021/12/14 15:00:56;;;;;;;;;;;8.80;99.90;;;;;;5031177;28;19924;-76
2021/12/14 15:03:33;;;;;;;;;;;8.90;99.90;;;;;;5039072;28;19916;-76
2021/12/14 15:06:02;;;;;;;;;;;8.90;99.90;;;;;;5028224;28;19916;-76
2021/12/14 15:08:42;;;;;;;;;;;8.90;99.90;;;;;;5018797;28;20369;-78
2021/12/14 15:11:15;;;;;;;;;;;8.90;99.90;;;;;;5028460;28;19929;-76
2021/12/14 15:13:45;;;;;;;;;;;9.00;99.90;;;;;;5027640;28;20037;-76
2021/12/14 15:16:17;;;;;;;;;;;8.80;99.90;;;;;;5022407;28;20019;-75
2021/12/14 15:18:45;;;;;;;;;;;8.80;99.90;;;;;;5055574;28;20394;-75
2021/12/14 15:21:32;;;;;;;;;;;8.80;99.90;;;;;;5028718;28;20002;-75
2021/12/14 15:24:18;;;;;;;;;;;8.80;99.90;;;;;;5037488;28;19916;-75
2021/12/14 15:27:05;;;;;;;;;;;8.80;99.90;;;;;;5029459;28;19974;-75
2021/12/14 15:29:33;;;;;;;;;;;8.80;99.90;;;;;;5034780;28;19916;-75
2021/12/14 15:32:19;;;;;;;;;;;8.80;99.90;;;;;;5018764;28;19917;-75
2021/12/14 15:34:54;;;;;;;;;;;8.80;99.90;;;;;;5031466;28;19922;-77
2021/12/14 15:37:39;;;;;;;;;;;8.80;99.90;;;;;;5022031;28;19920;-75